createdAt,value
2018-07-11T00:04:43.474Z,13.5
2018-07-11T00:09:45.805Z,13.4
2018-07-11T00:14:48.131Z,13.3
2018-07-11T00:19:50.363Z,13.2
2018-07-11T00:24:52.825Z,13.1
2018-07-11T00:29:54.919Z,13.1
2018-07-11T00:34:57.267Z,13
2018-07-11T00:39:59.528Z,12.9
2018-07-11T00:45:02.183Z,12.8
2018-07-11T00:50:04.075Z,12.7
2018-07-11T00:55:06.427Z,12.7
2018-07-11T01:00:08.652Z,12.7
2018-07-11T01:05:11.151Z,12.6
2018-07-11T01:10:13.258Z,12.5
2018-07-11T01:15:15.629Z,12.5
2018-07-11T01:20:17.829Z,12.4
2018-07-11T01:25:20.280Z,12.3
2018-07-11T01:30:22.583Z,12.2
2018-07-11T01:35:24.852Z,12.2
2018-07-11T01:40:27.222Z,12.2
2018-07-11T01:45:29.340Z,12.1
2018-07-11T01:50:31.612Z,12
2018-07-11T01:55:33.815Z,12
2018-07-11T02:00:36.242Z,11.9
2018-07-11T02:05:38.520Z,11.9
2018-07-11T02:10:40.826Z,11.9
2018-07-11T02:15:43.109Z,11.9
2018-07-11T02:20:45.350Z,11.8
2018-07-11T02:25:47.651Z,11.8
2018-07-11T02:30:49.952Z,11.7
2018-07-11T02:35:52.439Z,11.7
2018-07-11T02:40:54.629Z,11.6
2018-07-11T02:45:56.830Z,11.6
2018-07-11T02:50:59.188Z,11.6
2018-07-11T02:56:01.419Z,11.5
2018-07-11T03:01:03.735Z,11.4
2018-07-11T03:06:06.065Z,11.4
2018-07-11T03:11:08.404Z,11.4
2018-07-11T03:16:10.566Z,11.3
2018-07-11T03:21:12.885Z,11.2
2018-07-11T03:26:15.306Z,11.2
2018-07-11T03:31:17.422Z,11.1
2018-07-11T03:36:19.745Z,11.1
2018-07-11T03:41:22.128Z,11
2018-07-11T03:46:24.486Z,11
2018-07-11T03:51:26.649Z,10.9
2018-07-11T03:56:29.023Z,10.9
2018-07-11T04:01:31.319Z,10.9
2018-07-11T04:06:33.529Z,10.9
2018-07-11T04:11:35.948Z,10.9
2018-07-11T04:16:38.153Z,10.8
2018-07-11T04:21:40.458Z,10.9
2018-07-11T04:26:42.764Z,10.9
2018-07-11T04:31:45.084Z,11
2018-07-11T04:36:47.256Z,11
2018-07-11T04:47:07.705Z,11.2
2018-07-11T04:52:10.185Z,11.3
2018-07-11T04:57:12.277Z,11.4
2018-07-11T05:07:24.849Z,11.7
2018-07-11T05:12:27.187Z,11.9
2018-07-11T05:17:29.546Z,12.1
2018-07-11T05:22:31.744Z,12.2
2018-07-11T05:27:34.021Z,12.5
2018-07-11T05:32:36.367Z,13.1
2018-07-11T05:37:38.603Z,13.4
2018-07-11T05:42:40.901Z,13.7
2018-07-11T05:47:43.286Z,14
2018-07-11T05:52:45.512Z,14.2
2018-07-11T05:57:47.840Z,14.4
2018-07-11T06:02:50.017Z,14.6
2018-07-11T06:07:52.416Z,14.9
2018-07-11T06:12:54.612Z,15.2
2018-07-11T06:17:56.977Z,15.5
2018-07-11T06:22:59.403Z,15.8
2018-07-11T06:28:01.652Z,16.1
2018-07-11T06:33:03.757Z,16.4
2018-07-11T06:38:06.131Z,16.799999
2018-07-11T06:43:08.466Z,16.799999
2018-07-11T06:48:10.845Z,17.1
2018-07-11T06:53:13.019Z,17.4
2018-07-11T06:58:15.312Z,17.700001
2018-07-11T07:03:17.528Z,18.1
2018-07-11T07:08:19.987Z,18.4
2018-07-11T07:13:22.248Z,18.700001
2018-07-11T07:18:24.500Z,18.799999
2018-07-11T07:23:26.971Z,19.200001
2018-07-11T07:28:29.110Z,19.700001
2018-07-11T07:33:31.314Z,19.9
2018-07-11T07:38:33.737Z,20.200001
2018-07-11T07:43:36.024Z,20.6
2018-07-11T07:48:38.194Z,21.1
2018-07-11T07:53:40.578Z,21.200001
2018-07-11T07:58:42.906Z,21.5
2018-07-11T08:03:45.086Z,21.700001
2018-07-11T08:08:47.421Z,21.9
2018-07-11T08:13:49.752Z,22.200001
2018-07-11T08:18:52.058Z,22.799999
2018-07-11T08:23:54.309Z,22.9
2018-07-11T08:28:56.514Z,23.299999
2018-07-11T08:33:58.933Z,23.200001
2018-07-11T08:39:01.220Z,22.700001
2018-07-11T08:44:03.499Z,23.1
2018-07-11T08:49:05.873Z,23.799999
2018-07-11T08:54:08.147Z,24.299999
2018-07-11T08:59:10.477Z,24.1
2018-07-11T09:04:12.799Z,24.4
2018-07-11T09:09:15.077Z,25.6
2018-07-11T09:14:17.194Z,24.1
2018-07-11T09:19:19.640Z,24.1
2018-07-11T09:24:21.823Z,25.200001
2018-07-11T09:29:24.142Z,26.1
2018-07-11T09:34:26.441Z,26.9
2018-07-11T09:39:28.727Z,27.200001
2018-07-11T09:44:31.215Z,27.1
2018-07-11T09:49:33.312Z,25.700001
2018-07-11T09:54:35.532Z,24.200001
2018-07-11T09:59:37.815Z,23.5
2018-07-11T10:04:40.252Z,23.6
2018-07-11T10:09:42.509Z,25.1
2018-07-11T10:14:44.947Z,26.6
2018-07-11T10:19:47.195Z,26
2018-07-11T10:24:49.392Z,24.9
2018-07-11T10:29:51.590Z,25.9
2018-07-11T10:34:54.057Z,26.9
2018-07-11T10:39:56.256Z,27
2018-07-11T10:44:58.663Z,26.1
2018-07-11T10:50:00.949Z,25.5
2018-07-11T10:55:03.137Z,26.299999
2018-07-11T11:00:05.385Z,26.1
2018-07-11T11:05:07.715Z,25.4
2018-07-11T11:10:10.125Z,24.799999
2018-07-11T11:15:12.397Z,25.299999
2018-07-11T11:20:14.575Z,26.700001
2018-07-11T11:25:16.862Z,26.700001
2018-07-11T11:30:19.292Z,25.799999
2018-07-11T11:35:21.426Z,26.1
2018-07-11T11:40:23.811Z,27.1
2018-07-11T11:45:26.139Z,26.1
2018-07-11T11:50:28.368Z,25.700001
2018-07-11T11:55:30.861Z,25.1
2018-07-11T12:00:32.942Z,24.5
2018-07-11T12:05:35.302Z,23.799999
2018-07-11T12:10:37.531Z,23.700001
2018-07-11T12:15:39.782Z,23.799999
2018-07-11T12:20:42.227Z,24.5
2018-07-11T12:25:44.534Z,25.1
2018-07-11T12:30:46.667Z,24.1
2018-07-11T12:35:49.006Z,23.700001
2018-07-11T12:40:51.438Z,23.200001
2018-07-11T12:45:53.687Z,23.200001
2018-07-11T12:55:58.156Z,23.6
2018-07-11T13:01:00.704Z,24.1
2018-07-11T13:06:02.764Z,25.1
2018-07-11T13:11:05.162Z,25
2018-07-11T13:16:07.522Z,24.4
2018-07-11T13:21:09.773Z,24
2018-07-11T13:26:11.930Z,24
2018-07-11T13:31:14.261Z,24
2018-07-11T13:36:16.625Z,23.5
2018-07-11T13:41:18.902Z,23.200001
2018-07-11T13:46:21.221Z,23.4
2018-07-11T13:51:23.406Z,23.700001
2018-07-11T13:56:25.792Z,24.1
2018-07-11T14:01:28.008Z,24.5
2018-07-11T14:06:30.229Z,24.9
2018-07-11T14:11:32.638Z,26.299999
2018-07-11T14:16:34.986Z,26.200001
2018-07-11T14:21:37.202Z,25.700001
2018-07-11T14:26:39.475Z,25.700001
2018-07-11T14:31:41.959Z,25.5
2018-07-11T14:36:44.174Z,24.9
2018-07-11T14:41:46.400Z,24.5
2018-07-11T14:46:48.832Z,24.200001
2018-07-11T14:51:51.000Z,23.799999
2018-07-11T14:56:53.214Z,23.4
2018-07-11T15:01:55.673Z,23.1
2018-07-11T15:06:57.928Z,22.700001
2018-07-11T15:12:00.260Z,22.700001
2018-07-11T15:17:02.529Z,22.6
2018-07-11T15:22:04.835Z,22.299999
2018-07-11T15:27:07.058Z,22.1
2018-07-11T15:32:09.326Z,22
2018-07-11T15:42:14.011Z,22.1
2018-07-11T15:47:16.335Z,22.299999
2018-07-11T15:52:18.605Z,22.299999
2018-07-11T15:57:20.868Z,22.6
2018-07-11T16:02:23.095Z,22.799999
2018-07-11T16:07:25.404Z,22.700001
2018-07-11T16:12:27.816Z,22.5
2018-07-11T16:17:30.113Z,22.9
2018-07-11T16:22:32.237Z,23.6
2018-07-11T16:27:34.535Z,24.1
2018-07-11T16:32:36.937Z,24
2018-07-11T16:37:39.182Z,23.4
2018-07-11T16:42:41.433Z,22.799999
2018-07-11T16:47:43.838Z,22.4
2018-07-11T16:52:46.156Z,22.200001
2018-07-11T16:57:48.335Z,22
2018-07-11T17:02:50.751Z,21.9
2018-07-11T17:07:53.108Z,21.799999
2018-07-11T17:12:55.267Z,21.799999
2018-07-11T17:17:57.545Z,21.6
2018-07-11T17:22:59.902Z,21.4
2018-07-11T17:28:02.126Z,21.299999
2018-07-11T17:33:04.385Z,21.1
2018-07-11T17:38:06.770Z,21
2018-07-11T17:43:08.992Z,20.9
2018-07-11T17:48:11.259Z,20.799999
2018-07-11T17:53:13.617Z,20.700001
2018-07-11T17:58:16.012Z,20.5
2018-07-11T18:03:18.118Z,20.4
2018-07-11T18:08:20.462Z,20.299999
2018-07-11T18:13:22.871Z,20
2018-07-11T18:18:24.968Z,20
2018-07-11T18:23:27.381Z,19.9
2018-07-11T18:28:29.757Z,19.799999
2018-07-11T18:33:31.969Z,19.9
2018-07-11T18:38:34.280Z,19.799999
2018-07-11T18:43:36.492Z,19.700001
2018-07-11T18:48:38.768Z,19.700001
2018-07-11T18:53:41.200Z,19.5
2018-07-11T18:58:43.396Z,19.4
2018-07-11T19:03:45.638Z,19.299999
2018-07-11T19:08:48.033Z,19.200001
2018-07-11T19:13:50.349Z,19.1
2018-07-11T19:18:52.595Z,18.9
2018-07-11T19:23:54.871Z,18.799999
2018-07-11T19:28:57.265Z,18.700001
2018-07-11T19:33:59.553Z,18.6
2018-07-11T19:39:01.774Z,18.5
2018-07-11T19:44:04.064Z,18.4
2018-07-11T19:49:06.289Z,18.299999
2018-07-11T19:54:08.597Z,18.200001
2018-07-11T19:59:10.953Z,18
2018-07-11T20:04:13.209Z,17.9
2018-07-11T20:09:15.446Z,17.9
2018-07-11T20:14:17.918Z,17.799999
2018-07-11T20:19:20.319Z,17.799999
2018-07-11T20:29:24.852Z,17.700001
2018-07-11T20:34:27.082Z,17.6
2018-07-11T20:39:29.356Z,17.5
2018-07-11T20:44:32.213Z,17.4
2018-07-11T20:49:33.922Z,17.4
2018-07-11T20:54:36.164Z,17.4
2018-07-11T20:59:38.497Z,17.299999
2018-07-11T21:04:40.731Z,17.200001
2018-07-11T21:09:43.049Z,17.1
2018-07-11T21:14:45.336Z,17.1
2018-07-11T21:19:48.182Z,16.9
2018-07-11T21:24:51.445Z,16.9
2018-07-11T21:29:52.945Z,16.799999
2018-07-11T21:34:54.521Z,16.799999
2018-07-11T21:39:56.942Z,16.799999
2018-07-11T21:44:59.109Z,16.700001
2018-07-11T21:50:06.624Z,16.6
2018-07-11T21:55:03.737Z,16.5
2018-07-11T22:00:06.196Z,16.4
2018-07-11T22:05:08.325Z,16.299999
2018-07-11T22:10:10.605Z,16.200001
2018-07-11T22:15:12.970Z,16
2018-07-11T22:20:17.556Z,15.9
2018-07-11T22:25:17.392Z,15.9
2018-07-11T22:30:19.732Z,15.8
2018-07-11T22:35:22.181Z,15.7
2018-07-11T22:40:24.299Z,15.7
2018-07-11T22:45:26.636Z,15.5
2018-07-11T22:50:28.978Z,15.4
2018-07-11T22:55:31.234Z,15.4
2018-07-11T23:00:33.453Z,15.3
2018-07-11T23:05:35.720Z,15.3
2018-07-11T23:10:38.165Z,15.3
2018-07-11T23:15:40.466Z,15.3
2018-07-11T23:20:42.642Z,15.2
2018-07-11T23:25:45.075Z,15.2
2018-07-11T23:30:47.311Z,15.1
2018-07-11T23:35:49.592Z,15
2018-07-11T23:40:51.974Z,15
2018-07-11T23:45:54.237Z,14.9
2018-07-11T23:50:56.444Z,14.8
2018-07-11T23:55:58.746Z,14.7
